Startpagina
METAR-TAF:

METAR-TAF

Vliegvelden :

Brussels Airport. Zaventem

Brussel, België

breedte: 50-54N, lengte: 004-32E, hoogte: 55 m

Actueel weer

Dit bericht is 19 minuten geleden gemaakt, om 01:50 UTC
Wind 4 kt uit het westzuidwesten
Temperatuur 2°C
Vochtigheid 93%
Druk 1020 hPa
Zicht 10 km of meer
geen wolken onder 1500 m en geen cumulonimbus

METAR: EBBR 280150Z 24004KT CAVOK 02/01 Q1020 NOSIG

Tijdstip: 03:09 (02:09 UTC)

Verwachting

Dit bericht is 2 uur en het 59 minuten geleden gemaakt, om 23:10 UTC
Verwachting geldig van 28 om 00 UTC tot 29 om 06 UTC
Wind 6 kt uit het zuidwesten
Zicht 10 km of meer
Weinig wolken op 2500 ft
Kans 30% :
Tijdelijke
van 28 om 02 UTC tot 28 om 06 UTC
Zicht: 4000 m
nevel
Tijdelijke
van 28 om 07 UTC tot 28 om 12 UTC
Verspreide wolken op 700 ft
Gebroken wolken op 1200 ft
Kans 30% :
Tijdelijke
van 28 om 08 UTC tot 28 om 11 UTC
Gebroken wolken op 700 ft

TAF: EBBR 272310Z 2800/2906 22006KT 9999 FEW025 PROB30 TEMPO 2802/2806 4000 BR TEMPO 2807/2812 SCT007 BKN012 PROB30 TEMPO 2808/2811 BKN007

Waarnemingen en weersverwachtingen van meer dan 4000 vliegvelden (METAR en TAF).

De beschikbare stations zijn de gele en rode punten op de kaart.

Ga met uw muis naar het station om de naam te zien.

Klik dan om waarnemingen en weersverwachtingen te zien.

kaart wijzigen: klik op de groene knoppen met een zwart kruis om in te zoomen, op de groene knop met een streepje om uit te zoomen of op de groene pijlen voor aangrenzende kaarten.


METAR-TAF: